Time;durP1;ratioP1;P1;durP2;ratioP2;P2;SDS_P1;SDS_P2;PMS_P1;PMS_P2;Temp;Humidity;BMP_temperature;BMP_pressure;BME280_temperature;BME280_humidity;BME280_pressure;Samples;Min_cycle;Max_cycle;Signal;HPM_P1;HPM_P2
2023/01/13 00:01:07;;;;;;;6.13;0.93;;;8.00;99.90;;;;;;4903205;29;20029;-46
2023/01/13 00:03:33;;;;;;;5.97;1.20;;;8.00;99.90;;;;;;4907882;29;20036;-46
2023/01/13 00:05:59;;;;;;;8.63;1.58;;;8.00;99.90;;;;;;4911525;29;20040;-47
2023/01/13 00:08:25;;;;;;;6.65;1.13;;;8.00;99.90;;;;;;4894164;29;20044;-47
2023/01/13 00:10:51;;;;;;;11.25;1.00;;;8.00;99.90;;;;;;4894431;29;20044;-51
2023/01/13 00:13:25;;;;;;;8.70;1.20;;;8.00;99.90;;;;;;4894519;29;20056;-46
2023/01/13 00:16:02;;;;;;;7.45;1.00;;;7.90;99.90;;;;;;4895368;29;20052;-53
2023/01/13 00:18:28;;;;;;;10.07;1.40;;;7.90;99.90;;;;;;4897778;29;20612;-46
2023/01/13 00:20:57;;;;;;;8.35;1.38;;;7.90;99.90;;;;;;4897588;29;20119;-46
2023/01/13 00:23:23;;;;;;;9.35;1.30;;;7.90;99.90;;;;;;4897675;29;20031;-46
2023/01/13 00:25:49;;;;;;;8.20;1.30;;;7.80;99.90;;;;;;4907480;29;20036;-45
2023/01/13 00:28:14;;;;;;;14.23;1.92;;;7.80;99.90;;;;;;4900467;29;20400;-45
2023/01/13 00:30:40;;;;;;;5.65;1.42;;;7.80;99.90;;;;;;4897769;29;20104;-46
2023/01/13 00:33:06;;;;;;;9.57;1.60;;;7.90;99.90;;;;;;4897610;29;20370;-48
2023/01/13 00:35:31;;;;;;;10.60;1.60;;;7.90;99.90;;;;;;4899326;29;20070;-44
2023/01/13 00:37:57;;;;;;;10.30;1.50;;;7.90;99.90;;;;;;4904327;29;20036;-44
2023/01/13 00:40:22;;;;;;;10.43;1.63;;;8.00;99.90;;;;;;4897431;29;20025;-44
2023/01/13 00:45:32;;;;;;;11.35;1.95;;;8.10;99.90;;;;;;4902181;29;20063;-46
2023/01/13 00:47:58;;;;;;;9.60;2.20;;;8.20;99.90;;;;;;4904520;29;20044;-45
2023/01/13 00:50:24;;;;;;;12.73;1.50;;;8.10;99.90;;;;;;4907147;29;20036;-45
2023/01/13 00:52:49;;;;;;;9.07;1.73;;;8.10;99.90;;;;;;4906001;29;20040;-44
2023/01/13 00:55:15;;;;;;;9.00;1.42;;;8.20;99.90;;;;;;4911070;29;20511;-45
2023/01/13 00:57:41;;;;;;;14.10;1.75;;;8.10;99.90;;;;;;4909985;29;20039;-45
2023/01/13 01:00:09;;;;;;;7.63;1.35;;;8.10;99.90;;;;;;4902587;29;20031;-45
2023/01/13 01:02:34;;;;;;;14.48;2.33;;;8.10;99.90;;;;;;4902639;29;20040;-45
2023/01/13 01:05:00;;;;;;;12.32;1.65;;;8.10;99.90;;;;;;4910480;29;20024;-44
2023/01/13 01:07:26;;;;;;;16.48;2.10;;;8.20;99.90;;;;;;4911725;29;20479;-49
2023/01/13 01:09:51;;;;;;;9.02;1.65;;;8.20;99.90;;;;;;4910704;29;20028;-50
2023/01/13 01:12:17;;;;;;;11.95;2.10;;;8.20;99.90;;;;;;4915789;29;20115;-50
2023/01/13 01:14:42;;;;;;;12.65;1.73;;;8.20;99.90;;;;;;4912819;29;20024;-50
2023/01/13 01:17:08;;;;;;;8.85;1.63;;;8.10;99.90;;;;;;4900913;29;20039;-51
2023/01/13 01:19:36;;;;;;;15.82;2.25;;;8.10;99.90;;;;;;4904528;29;20024;-49
2023/01/13 01:22:02;;;;;;;8.05;1.40;;;8.10;99.90;;;;;;4901110;29;20036;-46
2023/01/13 01:24:27;;;;;;;17.50;2.28;;;8.10;99.90;;;;;;4904186;29;20028;-53
2023/01/13 01:26:53;;;;;;;13.77;1.80;;;8.10;99.90;;;;;;4900669;29;20033;-47
2023/01/13 01:29:18;;;;;;;10.57;1.65;;;8.00;99.90;;;;;;4907487;29;20152;-52
2023/01/13 01:31:44;;;;;;;12.60;2.10;;;8.00;99.90;;;;;;4915635;29;20035;-49
2023/01/13 01:34:10;;;;;;;16.85;1.90;;;8.00;99.90;;;;;;4915512;29;20432;-49
2023/01/13 01:36:35;;;;;;;13.65;2.15;;;7.90;99.90;;;;;;4914269;29;20032;-54
2023/01/13 01:39:02;;;;;;;11.35;2.05;;;7.90;99.90;;;;;;4915534;29;20044;-48
2023/01/13 01:41:31;;;;;;;15.80;1.90;;;7.90;99.90;;;;;;4915273;29;20028;-49
2023/01/13 01:44:27;;;;;;;20.45;3.30;;;7.90;99.90;;;;;;4909773;29;20025;-49
2023/01/13 01:46:54;;;;;;;14.25;1.80;;;7.90;99.90;;;;;;4911625;29;20111;-47
2023/01/13 01:49:32;;;;;;;10.63;2.22;;;7.80;99.90;;;;;;4915483;29;20024;-50
2023/01/13 01:52:00;;;;;;;11.40;2.00;;;7.90;99.90;;;;;;4911694;29;20024;-46
2023/01/13 01:54:51;;;;;;;10.45;2.10;;;8.00;99.90;;;;;;4913990;29;20020;-46
2023/01/13 01:57:28;;;;;;;15.15;2.15;;;8.00;99.90;;;;;;4913101;29;20035;-48
2023/01/13 01:59:54;;;;;;;17.15;3.13;;;7.90;99.90;;;;;;4915138;29;20060;-50
2023/01/13 02:02:20;;;;;;;13.52;1.50;;;7.90;99.90;;;;;;4914977;29;20035;-48
2023/01/13 02:04:50;;;;;;;15.05;2.40;;;7.90;99.90;;;;;;4915120;29;20028;-53
2023/01/13 02:07:29;;;;;;;11.60;2.30;;;7.80;99.90;;;;;;4903471;29;20037;-49
2023/01/13 02:09:57;;;;;;;15.25;1.98;;;7.80;99.90;;;;;;4895806;29;20032;-48
2023/01/13 02:12:31;;;;;;;16.13;2.40;;;7.80;99.90;;;;;;4896026;29;20610;-47
2023/01/13 02:15:09;;;;;;;12.05;1.67;;;7.70;99.90;;;;;;4895745;29;20032;-49
2023/01/13 02:18:15;;;;;;;10.65;1.75;;;7.80;99.90;;;;;;4899226;29;20028;-49
2023/01/13 02:20:47;;;;;;;9.65;1.80;;;7.80;99.90;;;;;;4914288;29;20062;-46
2023/01/13 02:26:21;;;;;;;11.18;1.88;;;7.70;99.90;;;;;;4901538;29;20038;-48
2023/01/13 02:31:54;;;;;;;14.90;2.05;;;7.60;99.90;;;;;;4914731;29;20036;-50
2023/01/13 02:34:30;;;;;;;16.45;2.63;;;7.60;99.90;;;;;;4914702;29;20016;-49
2023/01/13 02:37:03;;;;;;;13.18;2.08;;;7.60;99.90;;;;;;4914598;29;20024;-48
2023/01/13 02:39:32;;;;;;;12.52;2.13;;;7.50;99.90;;;;;;4913974;29;20028;-47
2023/01/13 02:45:12;;;;;;;15.55;2.50;;;7.60;99.90;;;;;;4914587;29;20047;-45
2023/01/13 02:47:41;;;;;;;11.90;2.05;;;7.60;99.90;;;;;;4902408;29;20036;-45
2023/01/13 02:50:16;;;;;;;21.83;2.45;;;7.50;99.90;;;;;;4914673;29;20111;-46
2023/01/13 02:52:53;;;;;;;11.55;1.77;;;7.50;99.90;;;;;;4914406;29;20036;-46
2023/01/13 02:55:29;;;;;;;13.57;2.33;;;7.50;99.90;;;;;;4914498;29;20047;-45
2023/01/13 02:57:58;;;;;;;17.25;2.58;;;7.60;99.90;;;;;;4914355;29;20488;-46
2023/01/13 03:00:25;;;;;;;19.85;2.58;;;7.60;99.90;;;;;;4914541;29;20038;-46
2023/01/13 03:02:51;;;;;;;15.05;2.55;;;7.50;99.90;;;;;;4914409;29;20181;-51
2023/01/13 03:05:17;;;;;;;16.45;2.55;;;7.50;99.90;;;;;;4914464;29;20521;-48
2023/01/13 03:08:10;;;;;;;16.60;2.22;;;7.50;99.90;;;;;;4914065;29;20036;-48
2023/01/13 03:10:43;;;;;;;17.98;2.78;;;7.60;99.90;;;;;;4914243;29;20114;-51
2023/01/13 03:13:26;;;;;;;19.40;2.30;;;7.70;99.90;;;;;;4901752;29;20484;-46
2023/01/13 03:16:13;;;;;;;12.05;3.00;;;7.60;99.90;;;;;;4913512;29;20039;-46
2023/01/13 03:19:03;;;;;;;14.55;2.22;;;7.60;99.90;;;;;;4914244;29;20118;-46
2023/01/13 03:21:28;;;;;;;19.00;2.58;;;7.60;99.90;;;;;;4914211;29;20028;-45
2023/01/13 03:24:18;;;;;;;17.65;3.28;;;7.60;99.90;;;;;;4914176;29;20079;-46
2023/01/13 03:26:52;;;;;;;20.35;2.97;;;7.70;99.90;;;;;;4913993;29;20060;-46
2023/01/13 03:29:27;;;;;;;15.23;2.42;;;7.70;99.90;;;;;;4914424;29;20047;-46
2023/01/13 03:32:18;;;;;;;16.08;2.58;;;7.70;99.90;;;;;;4914131;29;20020;-46
2023/01/13 03:34:54;;;;;;;23.33;3.55;;;7.60;99.90;;;;;;4913997;29;20033;-48
2023/01/13 03:37:25;;;;;;;22.90;2.88;;;7.70;99.90;;;;;;4914157;29;20059;-51
2023/01/13 03:39:56;;;;;;;17.10;2.22;;;7.60;99.90;;;;;;4913931;29;20040;-46
2023/01/13 03:42:24;;;;;;;19.98;2.55;;;7.70;99.90;;;;;;4914123;29;20498;-49
2023/01/13 03:45:24;;;;;;;22.02;3.55;;;7.70;99.90;;;;;;4913981;29;20028;-51
2023/01/13 03:47:55;;;;;;;18.58;2.55;;;7.80;99.90;;;;;;4901626;29;20056;-52
2023/01/13 03:50:28;;;;;;;20.75;3.67;;;7.70;99.90;;;;;;4914387;29;20024;-51
2023/01/13 03:53:26;;;;;;;12.25;3.08;;;7.70;99.90;;;;;;4917941;29;20055;-48
2023/01/13 03:56:01;;;;;;;13.40;2.47;;;7.70;99.90;;;;;;4906618;29;20597;-46
2023/01/13 03:58:40;;;;;;;17.70;2.65;;;7.70;99.90;;;;;;4917299;29;20032;-46
2023/01/13 04:01:17;;;;;;;21.77;2.13;;;7.70;99.90;;;;;;4917317;29;20844;-48
2023/01/13 04:03:48;;;;;;;16.17;2.10;;;7.60;99.90;;;;;;4916928;29;20484;-46
2023/01/13 04:06:30;;;;;;;18.85;2.63;;;7.60;99.90;;;;;;4917334;29;20032;-48
2023/01/13 04:09:05;;;;;;;20.25;2.53;;;7.70;99.90;;;;;;4916840;29;20119;-48
2023/01/13 04:11:37;;;;;;;20.50;3.58;;;7.70;99.90;;;;;;4916973;29;20024;-46
2023/01/13 04:14:07;;;;;;;21.75;2.75;;;7.60;99.90;;;;;;4916841;29;20021;-49
2023/01/13 04:16:32;;;;;;;14.25;2.38;;;7.60;99.90;;;;;;4917207;29;20103;-46
2023/01/13 04:18:58;;;;;;;16.23;2.45;;;7.70;99.90;;;;;;4917078;29;20436;-48
2023/01/13 04:21:24;;;;;;;22.23;2.97;;;7.70;99.90;;;;;;4917213;29;20024;-48
2023/01/13 04:23:50;;;;;;;19.33;2.95;;;7.70;99.90;;;;;;4917069;29;20036;-49
2023/01/13 04:26:18;;;;;;;13.43;2.33;;;7.80;99.90;;;;;;4916947;29;20024;-46
2023/01/13 04:28:44;;;;;;;20.95;2.30;;;7.70;99.90;;;;;;4916749;29;20563;-46
2023/01/13 04:31:11;;;;;;;15.15;2.50;;;7.70;99.90;;;;;;4917081;29;20039;-46
2023/01/13 04:33:36;;;;;;;16.42;2.60;;;7.70;99.90;;;;;;4917111;29;20036;-46
2023/01/13 04:36:02;;;;;;;19.80;2.88;;;7.70;99.90;;;;;;4917072;29;20016;-53
2023/01/13 04:38:27;;;;;;;21.10;2.33;;;7.70;99.90;;;;;;4916821;29;20027;-46
2023/01/13 04:40:53;;;;;;;21.40;2.63;;;7.70;99.90;;;;;;4916512;29;20032;-45
2023/01/13 04:43:19;;;;;;;14.88;2.33;;;7.70;99.90;;;;;;4916350;29;20030;-50
2023/01/13 04:45:44;;;;;;;22.40;2.78;;;7.60;99.90;;;;;;4916726;29;20083;-46
2023/01/13 04:48:10;;;;;;;20.90;2.53;;;7.60;99.90;;;;;;4916540;29;20052;-48
2023/01/13 04:50:36;;;;;;;21.60;3.30;;;7.70;99.90;;;;;;4916755;29;20039;-52
2023/01/13 04:53:02;;;;;;;20.08;2.65;;;7.60;99.90;;;;;;4916373;29;20395;-47
2023/01/13 04:55:28;;;;;;;31.20;3.50;;;7.60;99.90;;;;;;4915970;29;20021;-46
2023/01/13 04:57:54;;;;;;;29.30;3.47;;;7.60;99.90;;;;;;4916414;29;20047;-44
2023/01/13 05:00:21;;;;;;;16.95;3.08;;;7.50;99.90;;;;;;4916480;29;20028;-46
2023/01/13 05:02:49;;;;;;;15.35;2.50;;;7.60;99.90;;;;;;4915275;29;20535;-50
2023/01/13 05:05:15;;;;;;;18.15;2.90;;;7.70;99.90;;;;;;4916107;29;20035;-51
2023/01/13 05:07:41;;;;;;;15.63;2.58;;;7.80;99.90;;;;;;4916031;29;20033;-46
2023/01/13 05:10:07;;;;;;;17.55;2.15;;;7.80;99.90;;;;;;4916252;29;20084;-47
2023/01/13 05:18:19;;;;;;;18.00;2.75;;;7.80;99.90;;;;;;4911034;29;20070;-47
2023/01/13 05:20:45;;;;;;;18.92;2.35;;;7.80;99.90;;;;;;4915609;29;20110;-50
2023/01/13 05:25:57;;;;;;;21.02;3.03;;;7.90;99.90;;;;;;4895290;29;20508;-46
2023/01/13 05:28:23;;;;;;;22.13;2.67;;;7.90;99.90;;;;;;4915786;29;20040;-46
2023/01/13 05:30:49;;;;;;;19.98;4.38;;;7.90;99.90;;;;;;4915771;29;20480;-54
2023/01/13 05:33:17;;;;;;;19.52;2.97;;;7.90;99.90;;;;;;4915642;29;20028;-48
2023/01/13 05:35:44;;;;;;;15.35;3.42;;;7.80;99.90;;;;;;4915621;29;20034;-47
2023/01/13 05:38:11;;;;;;;15.55;3.20;;;7.90;99.90;;;;;;4915721;29;20039;-46
2023/01/13 05:43:25;;;;;;;15.10;2.47;;;7.80;99.90;;;;;;4915719;29;20107;-46
2023/01/13 05:46:00;;;;;;;19.85;2.80;;;7.80;99.90;;;;;;4915031;29;20079;-46
2023/01/13 05:48:35;;;;;;;16.60;2.70;;;7.80;99.90;;;;;;4914955;29;20041;-49
2023/01/13 05:51:02;;;;;;;13.95;2.80;;;7.90;99.90;;;;;;4915432;29;20080;-47
2023/01/13 05:53:28;;;;;;;25.63;3.45;;;7.90;99.90;;;;;;4915115;29;20028;-49
2023/01/13 05:55:54;;;;;;;25.42;3.10;;;7.90;99.90;;;;;;4915248;29;20035;-50
2023/01/13 05:58:21;;;;;;;17.38;2.60;;;8.00;99.90;;;;;;4915119;29;20042;-49
2023/01/13 06:00:48;;;;;;;14.98;2.30;;;8.00;99.90;;;;;;4915029;29;20060;-46
2023/01/13 06:03:14;;;;;;;14.63;2.30;;;7.90;99.90;;;;;;4915187;29;20032;-50
2023/01/13 06:05:41;;;;;;;21.00;2.65;;;7.90;99.90;;;;;;4915134;29;20035;-48
2023/01/13 06:08:07;;;;;;;19.90;2.70;;;8.00;99.90;;;;;;4915197;29;20123;-48
2023/01/13 06:10:34;;;;;;;12.50;2.50;;;7.90;99.90;;;;;;4915019;29;20032;-47
2023/01/13 06:13:00;;;;;;;15.02;2.67;;;7.90;99.90;;;;;;4915123;29;20060;-49
2023/01/13 06:15:25;;;;;;;19.25;2.35;;;7.90;99.90;;;;;;4914836;29;20028;-46
2023/01/13 06:17:51;;;;;;;18.83;2.58;;;7.90;99.90;;;;;;4914834;29;20024;-46
2023/01/13 06:20:17;;;;;;;13.82;2.35;;;7.80;99.90;;;;;;4915199;29;20024;-46
2023/01/13 06:22:46;;;;;;;13.18;2.08;;;7.80;99.90;;;;;;4914728;29;20036;-47
2023/01/13 06:25:25;;;;;;;11.15;1.63;;;7.80;99.90;;;;;;4915052;29;20035;-51
2023/01/13 06:27:52;;;;;;;13.98;2.72;;;7.70;99.90;;;;;;4914657;29;20052;-50
2023/01/13 06:30:17;;;;;;;16.67;2.97;;;7.70;99.90;;;;;;4915165;29;20028;-48
2023/01/13 06:32:47;;;;;;;12.82;2.15;;;7.60;99.90;;;;;;4914879;29;20031;-45
2023/01/13 06:35:17;;;;;;;13.68;1.85;;;7.60;99.90;;;;;;4914723;29;20028;-46
2023/01/13 06:37:47;;;;;;;17.38;2.83;;;7.60;99.90;;;;;;4914768;29;20160;-46
2023/01/13 06:40:13;;;;;;;20.55;2.25;;;7.60;99.90;;;;;;4914581;29;20027;-45
2023/01/13 06:45:54;;;;;;;17.20;2.47;;;7.60;99.90;;;;;;4856413;29;20064;-45
2023/01/13 06:48:31;;;;;;;16.58;2.35;;;7.50;99.90;;;;;;4856236;29;20128;-55
2023/01/13 06:50:57;;;;;;;19.67;2.33;;;7.60;99.90;;;;;;4888900;29;20032;-51
2023/01/13 06:53:23;;;;;;;17.35;2.78;;;7.50;99.90;;;;;;4913982;29;20115;-46
2023/01/13 06:55:49;;;;;;;17.80;2.50;;;7.50;99.90;;;;;;4907874;29;20111;-51
2023/01/13 06:58:15;;;;;;;15.73;2.10;;;7.50;99.90;;;;;;4914203;29;20036;-52
2023/01/13 07:00:40;;;;;;;18.92;2.80;;;7.50;99.90;;;;;;4912256;29;20040;-47
2023/01/13 07:03:15;;;;;;;15.93;1.92;;;7.50;99.90;;;;;;4914431;29;20040;-46
2023/01/13 07:05:42;;;;;;;11.27;2.22;;;7.40;99.90;;;;;;4912922;29;20092;-46
2023/01/13 07:08:08;;;;;;;11.57;2.30;;;7.40;99.90;;;;;;4913877;29;20032;-50
2023/01/13 07:10:35;;;;;;;21.13;2.92;;;7.40;99.90;;;;;;4914234;29;20429;-46
2023/01/13 07:15:57;;;;;;;13.63;1.63;;;7.40;99.90;;;;;;4914019;29;20035;-46
2023/01/13 07:18:23;;;;;;;15.73;2.60;;;7.40;99.90;;;;;;4914076;29;20028;-47
2023/01/13 07:20:54;;;;;;;16.33;2.33;;;7.50;99.90;;;;;;4913997;29;20186;-46
2023/01/13 07:23:19;;;;;;;18.92;2.75;;;7.40;99.90;;;;;;4914023;29;20047;-47
2023/01/13 07:25:45;;;;;;;17.30;2.00;;;7.40;99.90;;;;;;4914549;29;20420;-51
2023/01/13 07:28:10;;;;;;;14.00;2.13;;;7.40;99.90;;;;;;4917761;29;20047;-47
2023/01/13 07:30:37;;;;;;;15.60;2.47;;;7.40;99.90;;;;;;4917693;29;20058;-52
2023/01/13 07:33:03;;;;;;;12.32;1.67;;;7.40;99.90;;;;;;4917587;29;20039;-46
2023/01/13 07:35:28;;;;;;;18.75;2.17;;;7.50;99.90;;;;;;4917905;29;20036;-48
2023/01/13 07:37:54;;;;;;;13.77;2.05;;;7.50;99.90;;;;;;4917744;29;20040;-46
2023/01/13 07:40:19;;;;;;;17.10;3.00;;;7.40;99.90;;;;;;4917550;29;20103;-46
2023/01/13 07:45:29;;;;;;;9.65;1.83;;;7.40;99.90;;;;;;4904378;29;20051;-52
2023/01/13 07:47:55;;;;;;;12.10;1.90;;;7.50;99.90;;;;;;4917531;29;20115;-46
2023/01/13 07:50:22;;;;;;;19.08;2.45;;;7.60;99.90;;;;;;4917520;29;20475;-48
2023/01/13 07:52:48;;;;;;;15.85;2.42;;;7.70;99.90;;;;;;4917161;29;20063;-46
2023/01/13 07:55:14;;;;;;;12.40;2.28;;;7.70;99.90;;;;;;4915938;29;20111;-47
2023/01/13 07:57:40;;;;;;;13.60;1.95;;;7.70;99.90;;;;;;4917529;29;20114;-48
2023/01/13 08:00:06;;;;;;;11.95;2.22;;;7.70;99.90;;;;;;4916712;29;20051;-46
2023/01/13 08:02:32;;;;;;;17.92;2.80;;;7.60;99.90;;;;;;4912514;29;20032;-45
2023/01/13 08:04:57;;;;;;;18.05;2.90;;;7.70;99.90;;;;;;4917262;29;20028;-51
2023/01/13 08:07:23;;;;;;;16.38;3.00;;;7.80;99.90;;;;;;4903610;29;20036;-46
2023/01/13 08:09:49;;;;;;;12.88;2.28;;;7.80;99.90;;;;;;4916741;29;20511;-49
2023/01/13 08:14:59;;;;;;;9.45;1.55;;;7.70;99.90;;;;;;4898590;29;20087;-46
2023/01/13 08:17:24;;;;;;;18.83;1.75;;;7.60;99.90;;;;;;4900650;29;20464;-46
2023/01/13 08:19:50;;;;;;;11.15;1.95;;;7.70;99.90;;;;;;4914616;29;20032;-49
2023/01/13 08:22:15;;;;;;;15.30;2.03;;;7.70;99.90;;;;;;4914288;29;20024;-45
2023/01/13 08:24:41;;;;;;;15.63;2.45;;;7.70;99.90;;;;;;4926759;29;20028;-54
2023/01/13 08:27:07;;;;;;;17.23;2.40;;;7.70;99.90;;;;;;4908854;29;20051;-45
2023/01/13 08:29:36;;;;;;;12.27;2.00;;;7.70;99.90;;;;;;4908134;29;20162;-49
2023/01/13 08:32:01;;;;;;;12.82;2.63;;;7.70;99.90;;;;;;4908852;29;20039;-52
2023/01/13 08:34:27;;;;;;;22.08;2.80;;;7.70;99.90;;;;;;4911017;29;20035;-47
2023/01/13 08:36:53;;;;;;;16.67;2.58;;;7.80;99.90;;;;;;4912423;29;20044;-52
2023/01/13 08:39:18;;;;;;;19.25;2.40;;;7.80;99.90;;;;;;4915226;29;20075;-46
2023/01/13 08:41:57;;;;;;;16.30;2.38;;;7.80;99.90;;;;;;4916077;29;20032;-52
2023/01/13 08:44:28;;;;;;;15.20;2.30;;;7.80;99.90;;;;;;4916017;29;20032;-47
2023/01/13 08:46:54;;;;;;;20.63;2.75;;;8.00;99.90;;;;;;4915771;29;20075;-50
2023/01/13 08:49:21;;;;;;;17.83;2.35;;;8.50;99.90;;;;;;4914148;29;20054;-47
2023/01/13 08:51:47;;;;;;;11.63;2.78;;;8.90;99.90;;;;;;4915663;29;20116;-50
2023/01/13 08:54:13;;;;;;;15.82;2.40;;;9.30;99.90;;;;;;4914040;29;20131;-52
2023/01/13 08:56:41;;;;;;;11.98;2.03;;;9.40;99.90;;;;;;4910167;29;20047;-53
2023/01/13 08:59:10;;;;;;;17.25;2.15;;;9.80;99.90;;;;;;4909225;29;20025;-45
2023/01/13 09:01:38;;;;;;;14.25;2.30;;;10.00;99.90;;;;;;4915240;29;20047;-48
2023/01/13 09:04:04;;;;;;;13.40;2.72;;;10.10;99.90;;;;;;4915608;29;20035;-51
2023/01/13 09:06:30;;;;;;;19.80;2.60;;;9.70;99.90;;;;;;4910683;29;20027;-48
2023/01/13 09:08:56;;;;;;;12.63;2.30;;;9.40;99.90;;;;;;4906002;29;20052;-47
2023/01/13 09:14:23;;;;;;;15.40;3.05;;;9.60;99.90;;;;;;4911076;29;20434;-49
2023/01/13 09:16:49;;;;;;;12.73;2.22;;;9.20;99.90;;;;;;4900073;29;20025;-47
2023/01/13 09:19:15;;;;;;;17.50;3.67;;;8.90;99.90;;;;;;4913182;29;20404;-46
2023/01/13 09:21:40;;;;;;;14.70;2.78;;;8.80;99.90;;;;;;4915692;29;20024;-48
2023/01/13 09:24:07;;;;;;;19.05;3.03;;;8.70;99.90;;;;;;4915585;29;20054;-50
2023/01/13 09:26:32;;;;;;;19.25;2.63;;;8.80;99.90;;;;;;4915557;29;20058;-48
2023/01/13 09:28:58;;;;;;;18.42;3.20;;;8.80;99.90;;;;;;4915747;29;20599;-50
2023/01/13 09:31:24;;;;;;;14.35;2.28;;;8.90;99.90;;;;;;4915295;29;20028;-46
2023/01/13 09:36:34;;;;;;;15.38;2.40;;;8.90;99.90;;;;;;4905733;29;20496;-46
2023/01/13 09:38:59;;;;;;;14.43;2.70;;;8.90;99.90;;;;;;4922889;29;20032;-46
2023/01/13 09:44:24;;;;;;;10.20;2.40;;;9.10;99.90;;;;;;4907591;29;20116;-48
2023/01/13 09:46:55;;;;;;;16.50;2.35;;;9.10;99.90;;;;;;4911895;29;20068;-51
2023/01/13 09:49:23;;;;;;;16.65;2.40;;;9.10;99.90;;;;;;4915638;29;20076;-48
2023/01/13 09:52:01;;;;;;;13.05;2.78;;;9.20;99.90;;;;;;4915211;29;20032;-50
2023/01/13 09:54:27;;;;;;;13.73;2.53;;;9.40;99.90;;;;;;4913388;29;20043;-47
2023/01/13 09:56:52;;;;;;;15.38;2.13;;;9.50;99.90;;;;;;4913130;29;20024;-48
2023/01/13 09:59:18;;;;;;;19.77;2.38;;;9.60;99.90;;;;;;4913382;29;20164;-48
2023/01/13 10:02:28;;;;;;;14.50;2.22;;;9.80;99.90;;;;;;4905399;29;20150;-49
2023/01/13 10:05:19;;;;;;;13.43;2.03;;;9.80;99.90;;;;;;4904388;29;20077;-49
2023/01/13 10:07:56;;;;;;;16.20;2.90;;;10.00;99.90;;;;;;4910519;29;20044;-50
2023/01/13 10:10:36;;;;;;;14.20;1.88;;;10.20;99.90;;;;;;4907423;29;20055;-48
2023/01/13 10:13:28;;;;;;;15.75;2.28;;;10.80;99.90;;;;;;4907429;29;20491;-46
2023/01/13 10:16:17;;;;;;;15.38;2.60;;;11.00;99.90;;;;;;4909761;29;20092;-49
2023/01/13 10:19:01;;;;;;;13.00;2.78;;;11.00;99.90;;;;;;4902295;29;20032;-55
2023/01/13 10:21:57;;;;;;;16.40;2.40;;;10.60;99.90;;;;;;4900676;29;20044;-47
2023/01/13 10:24:42;;;;;;;13.32;2.10;;;10.20;99.90;;;;;;4909526;29;20115;-46
2023/01/13 10:27:37;;;;;;;11.15;2.17;;;10.20;99.90;;;;;;4907200;29;20032;-51
2023/01/13 10:30:20;;;;;;;14.95;1.98;;;10.60;99.90;;;;;;4906283;29;20032;-47
2023/01/13 10:33:00;;;;;;;10.20;2.15;;;10.80;99.90;;;;;;4899391;29;20052;-47
2023/01/13 10:35:55;;;;;;;13.40;1.88;;;11.30;99.90;;;;;;4898478;29;20028;-49
2023/01/13 10:38:23;;;;;;;11.45;1.88;;;11.20;99.90;;;;;;4909743;29;20053;-49
2023/01/13 10:40:53;;;;;;;12.55;1.90;;;11.10;99.90;;;;;;4912512;29;20187;-46
2023/01/13 10:43:19;;;;;;;17.45;2.22;;;11.00;99.90;;;;;;4913066;29;20031;-46
2023/01/13 10:45:57;;;;;;;18.60;2.60;;;10.80;99.90;;;;;;4910940;29;20052;-47
2023/01/13 10:48:35;;;;;;;11.40;1.98;;;11.00;99.90;;;;;;4903688;29;20064;-49
2023/01/13 10:51:18;;;;;;;13.15;2.15;;;10.70;99.90;;;;;;4899871;29;20064;-46
2023/01/13 10:53:49;;;;;;;17.13;2.33;;;10.40;99.90;;;;;;4909971;29;20060;-45
2023/01/13 10:56:18;;;;;;;13.48;1.88;;;10.30;99.90;;;;;;4909954;29;21094;-45
2023/01/13 10:58:43;;;;;;;14.15;2.10;;;10.30;99.90;;;;;;4902382;29;20036;-48
2023/01/13 11:01:26;;;;;;;12.63;1.80;;;10.50;99.90;;;;;;4898938;29;20077;-46
2023/01/13 11:03:55;;;;;;;14.70;1.90;;;10.80;99.90;;;;;;4903080;29;20073;-44
2023/01/13 11:06:29;;;;;;;16.27;2.77;;;11.60;99.90;;;;;;4899067;29;20447;-48
2023/01/13 11:08:57;;;;;;;9.45;1.98;;;12.70;99.90;;;;;;4897170;29;20476;-46
2023/01/13 11:11:26;;;;;;;11.73;1.80;;;13.20;99.60;;;;;;4899096;29;20377;-44
2023/01/13 11:16:41;;;;;;;10.98;2.25;;;14.60;95.40;;;;;;4912914;29;20135;-49
2023/01/13 11:19:14;;;;;;;11.55;2.30;;;14.60;94.10;;;;;;4899244;29;21597;-46
2023/01/13 11:21:48;;;;;;;15.25;2.30;;;13.70;94.80;;;;;;4901329;29;20040;-48
2023/01/13 11:24:17;;;;;;;12.43;2.40;;;12.60;96.00;;;;;;4913103;29;20781;-47
2023/01/13 11:26:52;;;;;;;10.73;1.95;;;11.80;97.30;;;;;;4907424;29;20076;-48
2023/01/13 11:29:26;;;;;;;14.95;2.00;;;11.40;98.70;;;;;;4906114;29;20058;-46
2023/01/13 11:32:24;;;;;;;7.60;1.55;;;11.30;98.90;;;;;;4907347;29;20046;-50
2023/01/13 11:35:04;;;;;;;12.23;1.92;;;11.70;98.50;;;;;;4905671;29;20067;-45
2023/01/13 11:37:32;;;;;;;10.25;1.98;;;12.80;97.40;;;;;;4902916;29;20024;-46
2023/01/13 11:40:14;;;;;;;10.98;2.10;;;12.80;96.50;;;;;;4905507;29;20036;-48
2023/01/13 11:42:45;;;;;;;12.15;2.55;;;13.20;95.80;;;;;;4904022;29;20119;-45
2023/01/13 11:45:36;;;;;;;12.30;2.50;;;12.70;96.10;;;;;;4900301;29;20024;-48
2023/01/13 11:48:03;;;;;;;17.05;2.40;;;12.10;96.80;;;;;;4897207;29;20032;-50
2023/01/13 11:51:03;;;;;;;12.90;2.35;;;11.80;97.20;;;;;;4897395;29;20061;-45
2023/01/13 11:53:43;;;;;;;10.93;2.13;;;11.90;97.80;;;;;;4907273;29;20138;-47
2023/01/13 11:56:14;;;;;;;15.73;2.03;;;11.70;98.00;;;;;;4907634;29;20029;-46
2023/01/13 11:58:57;;;;;;;14.23;1.98;;;11.50;98.20;;;;;;4896511;29;20079;-43
2023/01/13 12:01:23;;;;;;;11.00;2.10;;;11.30;98.20;;;;;;4900590;29;20095;-46
2023/01/13 12:04:14;;;;;;;11.10;2.10;;;11.30;98.10;;;;;;4906018;29;20032;-44
2023/01/13 12:06:40;;;;;;;17.17;2.05;;;11.10;98.80;;;;;;4908231;29;20583;-44
2023/01/13 12:09:15;;;;;;;12.02;1.92;;;11.20;99.00;;;;;;4901954;29;20047;-44
2023/01/13 12:15:09;;;;;;;10.15;1.90;;;11.10;99.30;;;;;;4903426;29;20524;-53
2023/01/13 12:18:03;;;;;;;13.60;2.38;;;11.20;98.80;;;;;;4903478;29;20571;-50
2023/01/13 12:20:52;;;;;;;11.93;2.10;;;11.50;99.00;;;;;;4899111;29;20032;-47
2023/01/13 12:23:36;;;;;;;12.00;1.98;;;11.70;98.00;;;;;;4913507;29;20080;-49
2023/01/13 12:26:20;;;;;;;9.85;1.70;;;11.70;98.20;;;;;;4915416;29;20106;-46
2023/01/13 12:28:54;;;;;;;19.27;1.98;;;11.50;98.00;;;;;;4901961;29;20036;-47
2023/01/13 12:31:21;;;;;;;10.27;2.03;;;11.50;98.50;;;;;;4911978;29;20024;-46
2023/01/13 12:34:10;;;;;;;12.88;1.85;;;11.40;98.70;;;;;;4909362;29;20063;-46
2023/01/13 12:36:57;;;;;;;9.70;1.85;;;11.30;98.50;;;;;;4900419;29;20035;-43
2023/01/13 12:39:44;;;;;;;8.48;1.50;;;12.20;97.70;;;;;;4902105;29;20040;-43
2023/01/13 12:45:21;;;;;;;11.52;2.17;;;12.40;97.10;;;;;;4912347;29;20473;-43
2023/01/13 12:47:47;;;;;;;13.05;2.25;;;12.20;96.60;;;;;;4916404;29;20052;-44
2023/01/13 12:50:36;;;;;;;9.57;2.10;;;12.40;96.70;;;;;;4903309;29;20043;-43
2023/01/13 12:53:27;;;;;;;12.00;1.83;;;12.90;97.00;;;;;;4902133;29;20036;-47
2023/01/13 12:55:53;;;;;;;9.50;1.67;;;14.10;94.10;;;;;;4900779;29;20115;-47
2023/01/13 12:58:28;;;;;;;9.95;1.80;;;14.00;93.40;;;;;;4901953;29;20378;-44
2023/01/13 13:00:57;;;;;;;8.10;1.85;;;13.70;94.30;;;;;;4899628;29;20046;-50
2023/01/13 13:03:32;;;;;;;11.52;1.92;;;13.60;93.30;;;;;;4896872;29;20024;-47
2023/01/13 13:06:09;;;;;;;6.40;1.67;;;13.30;94.20;;;;;;4901918;29;20036;-48
2023/01/13 13:08:37;;;;;;;11.48;2.28;;;12.60;94.60;;;;;;4904161;29;20045;-49
2023/01/13 13:13:16;;;;;;;11.38;1.65;;;12.50;95.20;;;;;;4903283;29;20028;-52
2023/01/13 13:14:01;;;;;;;12.23;1.88;;;12.20;95.50;;;;;;4911887;29;20586;-47
2023/01/13 13:16:28;;;;;;;11.30;2.20;;;12.10;96.30;;;;;;4902951;29;20031;-46
2023/01/13 13:19:18;;;;;;;12.07;2.00;;;11.90;96.00;;;;;;4908041;29;20028;-44
2023/01/13 13:22:06;;;;;;;8.70;1.70;;;11.90;96.10;;;;;;4896972;29;20029;-49
2023/01/13 13:24:32;;;;;;;15.98;2.33;;;11.70;96.10;;;;;;4908455;29;20575;-46
2023/01/13 13:27:25;;;;;;;13.52;2.47;;;11.50;97.10;;;;;;4900146;29;20021;-47
2023/01/13 13:29:56;;;;;;;13.98;1.90;;;11.40;96.50;;;;;;4903527;29;20088;-46
2023/01/13 13:32:46;;;;;;;8.90;1.63;;;11.30;96.60;;;;;;4902429;29;20028;-48
2023/01/13 13:35:29;;;;;;;10.57;1.83;;;11.40;96.90;;;;;;4899591;29;20111;-52
2023/01/13 13:47:13;;;;;;;10.30;1.90;;;13.20;93.70;;;;;;4897956;29;20722;-48
2023/01/13 13:49:41;;;;;;;8.63;1.83;;;13.20;94.00;;;;;;4904686;29;20040;-46
2023/01/13 13:52:28;;;;;;;11.65;2.05;;;12.70;94.30;;;;;;4901511;29;20020;-50
2023/01/13 13:55:01;;;;;;;12.57;1.80;;;12.80;94.80;;;;;;4907586;29;20036;-46
2023/01/13 13:57:38;;;;;;;7.28;1.63;;;13.30;94.20;;;;;;4908663;29;20017;-45
2023/01/13 14:00:21;;;;;;;9.20;1.70;;;13.40;93.40;;;;;;4909070;29;20060;-45
2023/01/13 14:03:02;;;;;;;7.70;1.85;;;13.70;93.90;;;;;;4911235;29;20024;-46
2023/01/13 14:05:33;;;;;;;6.50;1.52;;;14.30;93.30;;;;;;4913340;29;20070;-45
2023/01/13 14:08:11;;;;;;;10.73;1.90;;;15.10;90.40;;;;;;4908109;29;20092;-45
2023/01/13 14:10:39;;;;;;;9.35;1.70;;;15.10;89.70;;;;;;4903470;29;20032;-46